Date,TemperatureHighF,TemperatureAvgF,TemperatureLowF,DewpointHighF,DewpointAvgF,DewpointLowF,HumidityHigh,HumidityAvg,HumidityLow,PressureMaxIn,PressureMinIn,WindSpeedMaxMPH,WindSpeedAvgMPH,GustSpeedMaxMPH,PrecipitationSumIn
2013-4-1,74,64,58,60,50,35,98,68,25,29.24,29.07,23,4,23,0.37
2013-4-2,68,56,41,45,37,32,96,52,30,29.41,29.11,15,3,16,0.00
2013-4-3,62,55,49,40,27,18,55,33,26,29.48,29.29,19,4,21,0.00
2013-4-4,53,44,39,41,37,28,96,79,49,29.42,29.02,23,5,23,1.06
2013-4-5,65,49,38,48,43,37,97,82,46,29.21,28.97,14,3,14,0.00
2013-4-6,72,54,33,44,38,32,96,61,26,29.50,29.12,14,2,14,0.00
2013-4-7,74,59,40,54,45,37,96,63,39,29.55,29.29,16,2,19,0.00
2013-4-8,79,66,52,57,53,50,97,66,37,29.52,29.30,19,3,19,0.00
2013-4-9,82,69,53,60,57,52,97,68,38,29.59,29.32,15,2,15,0.00
2013-4-10,85,72,60,60,58,56,98,64,38,29.52,29.27,17,3,17,0.00
2013-4-11,81,71,62,68,63,56,98,78,51,29.37,29.11,18,4,19,0.00
2013-4-12,80,71,63,69,58,38,99,70,23,29.11,29.00,28,5,28,0.62
2013-4-13,77,62,44,52,43,36,97,57,24,29.34,29.01,13,2,13,0.00
2013-4-14,76,63,45,57,48,40,97,64,30,29.45,29.15,21,2,21,0.00
2013-4-15,73,66,57,63,59,55,98,81,64,29.44,29.18,10,1,11,0.00
2013-4-16,79,69,60,63,60,55,98,78,46,29.67,29.44,9,1,10,0.00
2013-4-17,85,70,56,64,60,55,98,74,42,29.60,29.41,12,2,12,0.00
2013-4-18,81,71,61,64,61,58,98,72,46,29.54,29.30,13,2,13,0.00
2013-4-19,82,69,53,70,65,49,99,86,58,29.30,29.06,24,6,24,0.24
2013-4-20,66,55,45,53,40,28,97,63,26,29.43,29.08,18,3,19,0.00
2013-4-21,65,52,38,45,41,37,97,69,41,29.66,29.35,20,3,20,0.00
2013-4-22,65,53,42,43,35,26,86,55,25,29.59,29.35,21,5,21,0.00
2013-4-23,71,58,47,54,49,41,97,73,50,29.51,29.31,17,3,17,0.00
2013-4-24,76,64,51,59,55,50,97,75,47,29.45,29.27,21,3,21,0.00
2013-4-25,74,64,50,61,49,35,95,62,25,29.56,29.31,19,3,19,0.00
2013-4-26,75,59,41,54,43,31,97,61,28,29.72,29.39,19,2,21,0.00
2013-4-27,69,59,55,58,53,46,98,81,47,29.66,29.43,9,2,9,0.26
2013-4-28,65,58,55,64,58,54,98,97,93,29.44,29.26,13,2,15,1.61
2013-4-29,75,64,58,64,61,58,98,89,62,29.36,29.22,9,1,9,0.44
2013-4-30,76,66,60,64,62,58,98,87,57,29.43,29.22,13,3,14,0.00